Time,TemperatureF,DewpointF,PressureIn,WindDirection,WindDirectionDegrees,WindSpeedMPH,WindSpeedGustMPH,Humidity,HourlyPrecipIn,Conditions,Clouds,dailyrainin,SoftwareType,DateUTC
2013-01-27 00:01:00,27.1,16.9,28.52,NW,315,3.0,11.0,65,0.00,,,0.00,Weather View 32 v70,2013-01-27 05:01:00,
2013-01-27 00:02:00,26.9,16.7,28.52,NW,315,6.0,11.0,65,0.00,,,0.00,Weather View 32 v70,2013-01-27 05:02:00,
2013-01-27 00:07:00,26.9,16.7,28.51,NW,315,2.0,11.0,65,0.00,,,0.00,Weather View 32 v70,2013-01-27 05:07:00,
2013-01-27 00:12:00,26.9,17.1,28.52,NW,315,4.0,11.0,66,0.00,,,0.00,Weather View 32 v70,2013-01-27 05:12:00,
2013-01-27 00:17:00,26.8,17.3,28.52,NW,315,7.0,9.0,67,0.00,,,0.00,Weather View 32 v70,2013-01-27 05:17:00,
2013-01-27 00:22:00,26.8,17.0,28.51,NW,315,2.0,9.0,66,0.00,,,0.00,Weather View 32 v70,2013-01-27 05:22:00,
2013-01-27 00:27:00,26.8,17.0,28.52,NW,315,4.0,9.0,66,0.00,,,0.00,Weather View 32 v70,2013-01-27 05:27:00,
2013-01-27 00:32:00,26.7,17.2,28.52,NW,315,3.0,8.0,67,0.00,,,0.00,Weather View 32 v70,2013-01-27 05:32:00,
2013-01-27 00:37:00,26.5,17.4,28.51,NNW,337,3.0,8.0,68,0.00,,,0.00,Weather View 32 v70,2013-01-27 05:37:00,
2013-01-27 00:42:00,26.3,17.5,28.53,NNW,337,4.0,7.0,69,0.00,,,0.00,Weather View 32 v70,2013-01-27 05:42:00,
2013-01-27 00:47:00,25.9,17.8,28.52,NNW,337,3.0,7.0,71,0.00,,,0.00,Weather View 32 v70,2013-01-27 05:47:00,
2013-01-27 00:52:00,25.8,17.7,28.52,North,360,3.0,7.0,71,0.00,,,0.00,Weather View 32 v70,2013-01-27 05:52:00,
2013-01-27 00:57:00,25.6,17.5,28.52,North,360,2.0,7.0,71,0.00,,,0.00,Weather View 32 v70,2013-01-27 05:57:00,
2013-01-27 01:02:00,25.5,17.7,28.52,North,360,2.0,7.0,72,0.00,,,0.00,Weather View 32 v70,2013-01-27 06:02:00,
2013-01-27 01:07:00,25.2,17.4,28.52,North,360,2.0,7.0,72,0.00,,,0.00,Weather View 32 v70,2013-01-27 06:07:00,
2013-01-27 01:12:00,25.2,16.8,28.53,North,360,2.0,7.0,70,0.00,,,0.00,Weather View 32 v70,2013-01-27 06:12:00,
2013-01-27 01:17:00,25.1,17.0,28.53,North,360,2.0,7.0,71,0.00,,,0.00,Weather View 32 v70,2013-01-27 06:17:00,
2013-01-27 01:22:00,24.9,17.2,28.53,North,360,0.0,7.0,72,0.00,,,0.00,Weather View 32 v70,2013-01-27 06:22:00,
2013-01-27 01:27:00,24.6,16.9,28.53,North,360,0.0,6.0,72,0.00,,,0.00,Weather View 32 v70,2013-01-27 06:27:00,
2013-01-27 01:32:00,24.3,16.3,28.54,North,360,0.0,5.0,71,0.00,,,0.00,Weather View 32 v70,2013-01-27 06:32:00,
2013-01-27 01:37:00,24.0,16.3,28.54,North,360,0.0,5.0,72,0.00,,,0.00,Weather View 32 v70,2013-01-27 06:37:00,
2013-01-27 01:42:00,23.8,16.1,28.54,North,360,0.0,5.0,72,0.00,,,0.00,Weather View 32 v70,2013-01-27 06:42:00,
2013-01-27 01:47:00,23.6,16.2,28.54,North,360,0.0,4.0,73,0.00,,,0.00,Weather View 32 v70,2013-01-27 06:47:00,
2013-01-27 01:52:00,23.5,16.4,28.54,North,360,0.0,3.0,74,0.00,,,0.00,Weather View 32 v70,2013-01-27 06:52:00,
2013-01-27 01:57:00,23.5,16.4,28.54,North,360,0.0,3.0,74,0.00,,,0.00,Weather View 32 v70,2013-01-27 06:57:00,
2013-01-27 02:02:00,23.7,16.3,28.54,NW,315,1.0,3.0,73,0.00,,,0.00,Weather View 32 v70,2013-01-27 07:02:00,
2013-01-27 02:07:00,23.9,16.5,28.54,NW,315,2.0,3.0,73,0.00,,,0.00,Weather View 32 v70,2013-01-27 07:07:00,
2013-01-27 02:13:00,23.9,16.8,28.54,NW,315,0.0,3.0,74,0.00,,,0.00,Weather View 32 v70,2013-01-27 07:13:00,
2013-01-27 02:18:00,23.8,16.7,28.54,NW,315,1.0,3.0,74,0.00,,,0.00,Weather View 32 v70,2013-01-27 07:18:00,
2013-01-27 02:23:00,23.9,16.5,28.54,NW,315,1.0,3.0,73,0.00,,,0.00,Weather View 32 v70,2013-01-27 07:23:00,
2013-01-27 02:28:00,23.9,16.8,28.55,NW,315,0.0,3.0,74,0.00,,,0.00,Weather View 32 v70,2013-01-27 07:28:00,
2013-01-27 02:33:00,24.1,16.7,28.55,NW,315,0.0,3.0,73,0.00,,,0.00,Weather View 32 v70,2013-01-27 07:33:00,
2013-01-27 02:38:00,24.1,16.7,28.56,NW,315,1.0,3.0,73,0.00,,,0.00,Weather View 32 v70,2013-01-27 07:38:00,
2013-01-27 02:43:00,23.9,17.1,28.56,NW,315,0.0,3.0,75,0.00,,,0.00,Weather View 32 v70,2013-01-27 07:43:00,
2013-01-27 02:48:00,23.6,17.5,28.56,NW,315,0.0,3.0,77,0.00,,,0.00,Weather View 32 v70,2013-01-27 07:48:00,
2013-01-27 02:53:00,23.5,17.4,28.56,NW,315,2.0,3.0,77,0.00,,,0.00,Weather View 32 v70,2013-01-27 07:53:00,
2013-01-27 02:58:00,23.5,17.1,28.56,NW,315,1.0,3.0,76,0.00,,,0.00,Weather View 32 v70,2013-01-27 07:58:00,
2013-01-27 03:03:00,23.6,17.1,28.56,NW,315,1.0,2.0,76,0.00,,,0.00,Weather View 32 v70,2013-01-27 08:03:00,
2013-01-27 03:08:00,23.7,17.2,28.56,NW,315,0.0,2.0,76,0.00,,,0.00,Weather View 32 v70,2013-01-27 08:08:00,
2013-01-27 03:13:00,23.8,17.3,28.56,NW,315,0.0,2.0,76,0.00,,,0.00,Weather View 32 v70,2013-01-27 08:13:00,
2013-01-27 03:18:00,23.7,16.9,28.54,NW,315,0.0,2.0,75,0.00,,,0.00,Weather View 32 v70,2013-01-27 08:18:00,
2013-01-27 03:23:00,23.7,16.9,28.54,NW,315,0.0,2.0,75,0.00,,,0.00,Weather View 32 v70,2013-01-27 08:23:00,
2013-01-27 03:28:00,23.8,16.7,28.54,NW,315,0.0,2.0,74,0.00,,,0.00,Weather View 32 v70,2013-01-27 08:28:00,
2013-01-27 03:33:00,23.9,16.8,28.54,NW,315,0.0,2.0,74,0.00,,,0.00,Weather View 32 v70,2013-01-27 08:33:00,
2013-01-27 03:38:00,23.9,16.8,28.54,NW,315,0.0,2.0,74,0.00,,,0.00,Weather View 32 v70,2013-01-27 08:38:00,
2013-01-27 03:43:00,23.9,17.1,28.54,NW,315,0.0,2.0,75,0.00,,,0.00,Weather View 32 v70,2013-01-27 08:43:00,
2013-01-27 03:48:00,23.9,16.5,28.54,NW,315,0.0,2.0,73,0.00,,,0.00,Weather View 32 v70,2013-01-27 08:48:00,
2013-01-27 03:53:00,23.9,16.5,28.54,NW,315,0.0,2.0,73,0.00,,,0.00,Weather View 32 v70,2013-01-27 08:53:00,
2013-01-27 03:58:00,23.7,16.6,28.54,NW,315,0.0,2.0,74,0.00,,,0.00,Weather View 32 v70,2013-01-27 08:58:00,
2013-01-27 04:03:00,23.5,16.7,28.53,NW,315,0.0,2.0,75,0.00,,,0.00,Weather View 32 v70,2013-01-27 09:03:00,
2013-01-27 04:08:00,22.9,16.5,28.53,NW,315,0.0,2.0,76,0.00,,,0.00,Weather View 32 v70,2013-01-27 09:08:00,
2013-01-27 04:13:00,22.8,16.7,28.53,NW,315,0.0,2.0,77,0.00,,,0.00,Weather View 32 v70,2013-01-27 09:13:00,
2013-01-27 04:18:00,22.6,16.8,28.54,NW,315,0.0,2.0,78,0.00,,,0.00,Weather View 32 v70,2013-01-27 09:18:00,
2013-01-27 04:23:00,22.2,16.7,28.54,NW,315,2.0,2.0,79,0.00,,,0.00,Weather View 32 v70,2013-01-27 09:23:00,
2013-01-27 04:28:00,21.9,17.5,28.54,NW,315,1.0,2.0,83,0.00,,,0.00,Weather View 32 v70,2013-01-27 09:28:00,
2013-01-27 04:33:00,21.7,17.9,28.53,NW,315,0.0,2.0,85,0.00,,,0.00,Weather View 32 v70,2013-01-27 09:33:00,
2013-01-27 04:38:00,21.7,17.9,28.54,NW,315,0.0,2.0,85,0.00,,,0.00,Weather View 32 v70,2013-01-27 09:38:00,
2013-01-27 04:43:00,21.7,17.6,28.53,NW,315,0.0,2.0,84,0.00,,,0.00,Weather View 32 v70,2013-01-27 09:43:00,
2013-01-27 04:48:00,21.9,17.5,28.54,NW,315,0.0,2.0,83,0.00,,,0.00,Weather View 32 v70,2013-01-27 09:48:00,
2013-01-27 04:53:00,21.9,17.5,28.54,NW,315,0.0,2.0,83,0.00,,,0.00,Weather View 32 v70,2013-01-27 09:53:00,
2013-01-27 04:58:00,21.6,17.5,28.54,NW,315,0.0,2.0,84,0.00,,,0.00,Weather View 32 v70,2013-01-27 09:58:00,
2013-01-27 05:03:00,21.4,17.3,28.54,NW,315,0.0,2.0,84,0.00,,,0.00,Weather View 32 v70,2013-01-27 10:03:00,
2013-01-27 05:08:00,21.2,17.4,28.55,NW,315,0.0,2.0,85,0.00,,,0.00,Weather View 32 v70,2013-01-27 10:08:00,
2013-01-27 05:13:00,20.9,17.1,28.56,NW,315,0.0,2.0,85,0.00,,,0.00,Weather View 32 v70,2013-01-27 10:13:00,
2013-01-27 05:18:00,21.0,17.7,28.55,NW,315,0.0,2.0,87,0.00,,,0.00,Weather View 32 v70,2013-01-27 10:18:00,
2013-01-27 05:23:00,20.9,17.4,28.55,NW,315,0.0,2.0,86,0.00,,,0.00,Weather View 32 v70,2013-01-27 10:23:00,
2013-01-27 05:28:00,20.6,17.1,28.56,NW,315,0.0,2.0,86,0.00,,,0.00,Weather View 32 v70,2013-01-27 10:28:00,
2013-01-27 05:33:00,20.1,16.6,28.57,NW,315,0.0,2.0,86,0.00,,,0.00,Weather View 32 v70,2013-01-27 10:33:00,
2013-01-27 05:38:00,19.9,16.9,28.57,NW,315,0.0,2.0,88,0.00,,,0.00,Weather View 32 v70,2013-01-27 10:38:00,
2013-01-27 05:43:00,19.7,17.2,28.57,NW,315,0.0,2.0,90,0.00,,,0.00,Weather View 32 v70,2013-01-27 10:43:00,
2013-01-27 05:48:00,19.4,16.9,28.57,NW,315,0.0,2.0,90,0.00,,,0.00,Weather View 32 v70,2013-01-27 10:48:00,
2013-01-27 05:53:00,19.1,16.7,28.58,NW,315,0.0,2.0,90,0.00,,,0.00,Weather View 32 v70,2013-01-27 10:53:00,
2013-01-27 05:58:00,19.1,16.9,28.58,NW,315,0.0,2.0,91,0.00,,,0.00,Weather View 32 v70,2013-01-27 10:58:00,
2013-01-27 06:03:00,19.0,17.1,28.58,NW,315,0.0,2.0,92,0.00,,,0.00,Weather View 32 v70,2013-01-27 11:03:00,
2013-01-27 06:08:00,18.9,17.0,28.58,NW,315,0.0,2.0,92,0.00,,,0.00,Weather View 32 v70,2013-01-27 11:08:00,
2013-01-27 06:13:00,18.8,17.1,28.58,NW,315,0.0,2.0,93,0.00,,,0.00,Weather View 32 v70,2013-01-27 11:13:00,
2013-01-27 06:18:00,18.8,17.1,28.59,NW,315,0.0,2.0,93,0.00,,,0.00,Weather View 32 v70,2013-01-27 11:18:00,
2013-01-27 06:23:00,18.5,16.8,28.59,NW,315,0.0,2.0,93,0.00,,,0.00,Weather View 32 v70,2013-01-27 11:23:00,
2013-01-27 06:28:00,18.2,16.5,28.59,NW,315,0.0,2.0,93,0.00,,,0.00,Weather View 32 v70,2013-01-27 11:28:00,
2013-01-27 06:33:00,17.7,15.5,28.59,NW,315,0.0,1.0,91,0.00,,,0.00,Weather View 32 v70,2013-01-27 11:33:00,
2013-01-27 06:38:00,17.1,15.4,28.59,NW,315,0.0,1.0,93,0.00,,,0.00,Weather View 32 v70,2013-01-27 11:38:00,
2013-01-27 06:43:00,16.8,15.1,28.59,NW,315,0.0,1.0,93,0.00,,,0.00,Weather View 32 v70,2013-01-27 11:43:00,
2013-01-27 06:48:00,16.6,14.9,28.59,NW,315,0.0,1.0,93,0.00,,,0.00,Weather View 32 v70,2013-01-27 11:48:00,
2013-01-27 06:53:00,16.6,14.9,28.60,NW,315,0.0,1.0,93,0.00,,,0.00,Weather View 32 v70,2013-01-27 11:53:00,
2013-01-27 06:58:00,16.6,14.9,28.60,NW,315,0.0,1.0,93,0.00,,,0.00,Weather View 32 v70,2013-01-27 11:58:00,
2013-01-27 07:03:00,16.4,14.7,28.60,NW,315,0.0,1.0,93,0.00,,,0.00,Weather View 32 v70,2013-01-27 12:03:00,
2013-01-27 07:08:00,16.3,14.6,28.62,NW,315,0.0,1.0,93,0.00,,,0.00,Weather View 32 v70,2013-01-27 12:08:00,
2013-01-27 07:13:00,16.3,14.6,28.62,NW,315,0.0,2.0,93,0.00,,,0.00,Weather View 32 v70,2013-01-27 12:13:00,
2013-01-27 07:18:00,16.2,14.5,28.62,NW,315,2.0,2.0,93,0.00,,,0.00,Weather View 32 v70,2013-01-27 12:18:00,
2013-01-27 07:23:00,16.2,14.5,28.62,NW,315,1.0,2.0,93,0.00,,,0.00,Weather View 32 v70,2013-01-27 12:23:00,
2013-01-27 07:28:00,16.4,14.7,28.61,NW,315,0.0,2.0,93,0.00,,,0.00,Weather View 32 v70,2013-01-27 12:28:00,
2013-01-27 07:33:00,16.2,14.5,28.62,NW,315,0.0,2.0,93,0.00,,,0.00,Weather View 32 v70,2013-01-27 12:33:00,
2013-01-27 07:38:00,15.9,14.2,28.63,NW,315,0.0,2.0,93,0.00,,,0.00,Weather View 32 v70,2013-01-27 12:38:00,
2013-01-27 07:43:00,15.9,14.2,28.63,NW,315,0.0,2.0,93,0.00,,,0.00,Weather View 32 v70,2013-01-27 12:43:00,
2013-01-27 07:48:00,16.3,14.6,28.63,NW,315,1.0,2.0,93,0.00,,,0.00,Weather View 32 v70,2013-01-27 12:48:00,
2013-01-27 07:53:00,16.6,14.9,28.62,NW,315,1.0,2.0,93,0.00,,,0.00,Weather View 32 v70,2013-01-27 12:53:00,
2013-01-27 07:59:00,16.9,15.2,28.62,NW,315,2.0,2.0,93,0.00,,,0.00,Weather View 32 v70,2013-01-27 12:59:00,
2013-01-27 08:04:00,17.3,15.6,28.62,NW,315,2.0,2.0,93,0.00,,,0.00,Weather View 32 v70,2013-01-27 13:04:00,
2013-01-27 08:09:00,17.8,16.1,28.62,NW,315,2.0,2.0,93,0.00,,,0.00,Weather View 32 v70,2013-01-27 13:09:00,
2013-01-27 08:14:00,18.2,16.5,28.63,NW,315,1.0,3.0,93,0.00,,,0.00,Weather View 32 v70,2013-01-27 13:14:00,
2013-01-27 08:19:00,18.7,17.0,28.62,NW,315,1.0,3.0,93,0.00,,,0.00,Weather View 32 v70,2013-01-27 13:19:00,
2013-01-27 08:24:00,19.1,17.4,28.63,WNW,292,2.0,4.0,93,0.00,,,0.00,Weather View 32 v70,2013-01-27 13:24:00,
2013-01-27 08:29:00,19.7,18.0,28.63,WNW,292,1.0,4.0,93,0.00,,,0.00,Weather View 32 v70,2013-01-27 13:29:00,
2013-01-27 08:34:00,20.3,18.6,28.64,WNW,292,0.0,4.0,93,0.00,,,0.00,Weather View 32 v70,2013-01-27 13:34:00,
2013-01-27 08:39:00,21.0,19.3,28.64,WNW,292,0.0,4.0,93,0.00,,,0.00,Weather View 32 v70,2013-01-27 13:39:00,
2013-01-27 08:44:00,21.9,20.2,28.64,WNW,292,0.0,4.0,93,0.00,,,0.00,Weather View 32 v70,2013-01-27 13:44:00,
2013-01-27 08:49:00,22.9,21.2,28.64,WNW,292,0.0,4.0,93,0.00,,,0.00,Weather View 32 v70,2013-01-27 13:49:00,
2013-01-27 08:54:00,23.7,22.0,28.64,North,360,2.0,4.0,93,0.00,,,0.00,Weather View 32 v70,2013-01-27 13:54:00,
2013-01-27 08:59:00,24.6,22.9,28.64,North,360,1.0,4.0,93,0.00,,,0.00,Weather View 32 v70,2013-01-27 13:59:00,
2013-01-27 09:04:00,25.5,23.5,28.64,North,360,1.0,4.0,92,0.00,,,0.00,Weather View 32 v70,2013-01-27 14:04:00,
2013-01-27 09:09:00,26.5,22.3,28.64,North,360,2.0,4.0,84,0.00,,,0.00,Weather View 32 v70,2013-01-27 14:09:00,
2013-01-27 09:14:00,27.0,20.8,28.63,North,360,2.0,4.0,77,0.00,,,0.00,Weather View 32 v70,2013-01-27 14:14:00,
2013-01-27 09:19:00,27.3,20.1,28.64,NNE,22,3.0,6.0,74,0.00,,,0.00,Weather View 32 v70,2013-01-27 14:19:00,
2013-01-27 09:24:00,27.7,20.5,28.65,NNE,22,2.0,6.0,74,0.00,,,0.00,Weather View 32 v70,2013-01-27 14:24:00,
2013-01-27 09:29:00,28.1,22.4,28.64,NE,45,2.0,6.0,79,0.00,,,0.00,Weather View 32 v70,2013-01-27 14:29:00,
2013-01-27 09:34:00,28.3,21.1,28.65,East,90,1.0,6.0,74,0.00,,,0.00,Weather View 32 v70,2013-01-27 14:34:00,
2013-01-27 09:39:00,28.4,20.9,28.65,NNE,22,0.0,6.0,73,0.00,,,0.00,Weather View 32 v70,2013-01-27 14:39:00,
2013-01-27 09:44:00,28.9,21.3,28.65,NE,45,2.0,6.0,73,0.00,,,0.00,Weather View 32 v70,2013-01-27 14:44:00,
2013-01-27 09:49:00,29.2,21.3,28.65,East,90,2.0,6.0,72,0.00,,,0.00,Weather View 32 v70,2013-01-27 14:49:00,
2013-01-27 09:54:00,29.1,20.9,28.65,SE,135,2.0,6.0,71,0.00,,,0.00,Weather View 32 v70,2013-01-27 14:54:00,
2013-01-27 09:59:00,29.6,21.7,28.65,ESE,112,1.0,6.0,72,0.00,,,0.00,Weather View 32 v70,2013-01-27 14:59:00,
2013-01-27 10:04:00,29.5,20.9,28.65,SE,135,0.0,6.0,70,0.00,,,0.00,Weather View 32 v70,2013-01-27 15:04:00,
2013-01-27 10:09:00,30.2,22.9,28.65,ESE,112,2.0,6.0,74,0.00,,,0.00,Weather View 32 v70,2013-01-27 15:09:00,
2013-01-27 10:14:00,29.5,20.6,28.65,SE,135,2.0,6.0,69,0.00,,,0.00,Weather View 32 v70,2013-01-27 15:14:00,
2013-01-27 10:19:00,30.1,21.8,28.65,SE,135,4.0,6.0,71,0.00,,,0.00,Weather View 32 v70,2013-01-27 15:19:00,
2013-01-27 10:24:00,29.7,20.8,28.65,SSE,157,2.0,6.0,69,0.00,,,0.00,Weather View 32 v70,2013-01-27 15:24:00,
2013-01-27 10:29:00,29.6,20.0,28.65,SE,135,2.0,6.0,67,0.00,,,0.00,Weather View 32 v70,2013-01-27 15:29:00,
2013-01-27 10:34:00,30.2,20.9,28.65,South,180,3.0,6.0,68,0.00,,,0.00,Weather View 32 v70,2013-01-27 15:34:00,
2013-01-27 10:39:00,29.9,19.6,28.65,South,180,5.0,8.0,65,0.00,,,0.00,Weather View 32 v70,2013-01-27 15:39:00,
2013-01-27 10:44:00,29.9,19.9,28.66,SSW,202,2.0,8.0,66,0.00,,,0.00,Weather View 32 v70,2013-01-27 15:44:00,
2013-01-27 10:49:00,30.7,20.3,28.65,South,180,2.0,8.0,65,0.00,,,0.00,Weather View 32 v70,2013-01-27 15:49:00,
2013-01-27 10:54:00,30.5,20.5,28.65,WSW,247,5.0,8.0,66,0.00,,,0.00,Weather View 32 v70,2013-01-27 15:54:00,
2013-01-27 10:59:00,30.3,20.3,28.65,SE,135,5.0,8.0,66,0.00,,,0.00,Weather View 32 v70,2013-01-27 15:59:00,
2013-01-27 11:04:00,30.9,20.1,28.65,SW,225,2.0,8.0,64,0.00,,,0.00,Weather View 32 v70,2013-01-27 16:04:00,
2013-01-27 11:09:00,30.8,19.7,28.65,SW,225,4.0,10.0,63,0.00,,,0.00,Weather View 32 v70,2013-01-27 16:09:00,
2013-01-27 11:14:00,31.2,20.8,28.65,SSE,157,2.0,10.0,65,0.00,,,0.00,Weather View 32 v70,2013-01-27 16:14:00,
2013-01-27 11:19:00,30.9,20.1,28.65,SSE,157,6.0,11.0,64,0.00,,,0.00,Weather View 32 v70,2013-01-27 16:19:00,
2013-01-27 11:24:00,31.2,20.8,28.65,SE,135,6.0,11.0,65,0.00,,,0.00,Weather View 32 v70,2013-01-27 16:24:00,
2013-01-27 11:29:00,31.5,20.0,28.64,South,180,9.0,11.0,62,0.00,,,0.00,Weather View 32 v70,2013-01-27 16:29:00,
2013-01-27 11:34:00,31.8,20.6,28.64,SE,135,6.0,11.0,63,0.00,,,0.00,Weather View 32 v70,2013-01-27 16:34:00,
2013-01-27 11:39:00,31.9,20.7,28.64,South,180,9.0,11.0,63,0.00,,,0.00,Weather View 32 v70,2013-01-27 16:39:00,
2013-01-27 11:44:00,32.1,20.2,28.64,SSE,157,6.0,12.0,61,0.00,,,0.00,Weather View 32 v70,2013-01-27 16:44:00,
2013-01-27 11:49:00,32.6,21.0,28.64,SW,225,2.0,12.0,62,0.00,,,0.00,Weather View 32 v70,2013-01-27 16:49:00,
2013-01-27 11:54:00,32.9,20.9,28.63,SSE,157,4.0,12.0,61,0.00,,,0.00,Weather View 32 v70,2013-01-27 16:54:00,
2013-01-27 11:59:00,33.0,21.4,28.63,SW,225,5.0,12.0,62,0.00,,,0.00,Weather View 32 v70,2013-01-27 16:59:00,
2013-01-27 12:04:00,33.4,21.0,28.63,SSE,157,6.0,12.0,60,0.00,,,0.00,Weather View 32 v70,2013-01-27 17:04:00,
2013-01-27 12:09:00,33.3,20.5,28.63,South,180,4.0,12.0,59,0.00,,,0.00,Weather View 32 v70,2013-01-27 17:09:00,
2013-01-27 12:14:00,33.3,20.5,28.63,SW,225,6.0,12.0,59,0.00,,,0.00,Weather View 32 v70,2013-01-27 17:14:00,
2013-01-27 12:19:00,33.3,20.1,28.62,SW,225,11.0,12.0,58,0.00,,,0.00,Weather View 32 v70,2013-01-27 17:19:00,
2013-01-27 12:24:00,33.4,20.2,28.62,South,180,4.0,12.0,58,0.00,,,0.00,Weather View 32 v70,2013-01-27 17:24:00,
2013-01-27 12:29:00,33.8,20.2,28.62,WSW,247,2.0,12.0,57,0.00,,,0.00,Weather View 32 v70,2013-01-27 17:29:00,
2013-01-27 12:34:00,34.5,20.4,28.61,SSW,202,4.0,12.0,56,0.00,,,0.00,Weather View 32 v70,2013-01-27 17:34:00,
2013-01-27 12:39:00,34.9,20.4,28.61,SW,225,4.0,12.0,55,0.00,,,0.00,Weather View 32 v70,2013-01-27 17:39:00,
2013-01-27 12:44:00,35.5,20.9,28.60,South,180,3.0,11.0,55,0.00,,,0.00,Weather View 32 v70,2013-01-27 17:44:00,
2013-01-27 12:49:00,36.4,21.3,28.60,South,180,4.0,11.0,54,0.00,,,0.00,Weather View 32 v70,2013-01-27 17:49:00,
2013-01-27 12:54:00,35.9,20.4,28.59,SSE,157,6.0,11.0,53,0.00,,,0.00,Weather View 32 v70,2013-01-27 17:54:00,
2013-01-27 12:59:00,36.5,21.4,28.59,SE,135,4.0,11.0,54,0.00,,,0.00,Weather View 32 v70,2013-01-27 17:59:00,
2013-01-27 13:04:00,36.9,21.3,28.59,South,180,3.0,11.0,53,0.00,,,0.00,Weather View 32 v70,2013-01-27 18:04:00,
2013-01-27 13:09:00,36.9,20.9,28.59,SSW,202,8.0,11.0,52,0.00,,,0.00,Weather View 32 v70,2013-01-27 18:09:00,
2013-01-27 13:14:00,36.6,20.6,28.58,SW,225,6.0,11.0,52,0.00,,,0.00,Weather View 32 v70,2013-01-27 18:14:00,
2013-01-27 13:19:00,36.9,21.3,28.59,SW,225,6.0,11.0,53,0.00,,,0.00,Weather View 32 v70,2013-01-27 18:19:00,
2013-01-27 13:24:00,37.2,20.7,28.59,SSE,157,4.0,11.0,51,0.00,,,0.00,Weather View 32 v70,2013-01-27 18:24:00,
2013-01-27 13:29:00,37.3,21.3,28.59,SE,135,5.0,11.0,52,0.00,,,0.00,Weather View 32 v70,2013-01-27 18:29:00,
2013-01-27 13:34:00,37.5,21.0,28.59,South,180,6.0,11.0,51,0.00,,,0.00,Weather View 32 v70,2013-01-27 18:34:00,
2013-01-27 13:39:00,37.9,21.4,28.59,SSE,157,5.0,11.0,51,0.00,,,0.00,Weather View 32 v70,2013-01-27 18:39:00,
2013-01-27 13:44:00,38.2,22.1,28.58,SW,225,6.0,11.0,52,0.00,,,0.00,Weather View 32 v70,2013-01-27 18:44:00,
2013-01-27 13:49:00,38.5,21.9,28.58,SW,225,4.0,11.0,51,0.00,,,0.00,Weather View 32 v70,2013-01-27 18:49:00,
2013-01-27 13:54:00,38.1,21.6,28.58,SSE,157,7.0,11.0,51,0.00,,,0.00,Weather View 32 v70,2013-01-27 18:54:00,
2013-01-27 13:59:00,38.5,23.3,28.58,SE,135,1.0,11.0,54,0.00,,,0.00,Weather View 32 v70,2013-01-27 18:59:00,
2013-01-27 14:04:00,38.3,21.3,28.58,SE,135,6.0,11.0,50,0.00,,,0.00,Weather View 32 v70,2013-01-27 19:04:00,
2013-01-27 14:09:00,38.5,21.9,28.58,SSE,157,2.0,11.0,51,0.00,,,0.00,Weather View 32 v70,2013-01-27 19:09:00,
2013-01-27 14:14:00,38.4,21.8,28.57,South,180,6.0,11.0,51,0.00,,,0.00,Weather View 32 v70,2013-01-27 19:14:00,
2013-01-27 14:19:00,38.1,21.6,28.57,SW,225,4.0,11.0,51,0.00,,,0.00,Weather View 32 v70,2013-01-27 19:19:00,
2013-01-27 14:24:00,38.1,21.6,28.57,SE,135,2.0,11.0,51,0.00,,,0.00,Weather View 32 v70,2013-01-27 19:24:00,
2013-01-27 14:29:00,38.1,22.0,28.57,South,180,4.0,11.0,52,0.00,,,0.00,Weather View 32 v70,2013-01-27 19:29:00,
2013-01-27 14:34:00,38.1,21.6,28.57,South,180,3.0,11.0,51,0.00,,,0.00,Weather View 32 v70,2013-01-27 19:34:00,
2013-01-27 14:39:00,38.4,21.8,28.57,SW,225,1.0,11.0,51,0.00,,,0.00,Weather View 32 v70,2013-01-27 19:39:00,
2013-01-27 14:44:00,38.6,21.5,28.57,South,180,3.0,11.0,50,0.00,,,0.00,Weather View 32 v70,2013-01-27 19:44:00,
2013-01-27 14:49:00,38.5,21.9,28.57,SE,135,4.0,11.0,51,0.00,,,0.00,Weather View 32 v70,2013-01-27 19:49:00,
2013-01-27 14:54:00,38.9,22.3,28.57,SE,135,8.0,10.0,51,0.00,,,0.00,Weather View 32 v70,2013-01-27 19:54:00,
2013-01-27 14:59:00,39.4,23.2,28.57,SSE,157,2.0,10.0,52,0.00,,,0.00,Weather View 32 v70,2013-01-27 19:59:00,
2013-01-27 15:04:00,40.2,23.5,28.57,SW,225,6.0,9.0,51,0.00,,,0.00,Weather View 32 v70,2013-01-27 20:04:00,
2013-01-27 15:09:00,40.3,22.1,28.57,SE,135,2.0,9.0,48,0.00,,,0.00,Weather View 32 v70,2013-01-27 20:09:00,
2013-01-27 15:14:00,40.3,22.1,28.57,SSE,157,4.0,9.0,48,0.00,,,0.00,Weather View 32 v70,2013-01-27 20:14:00,
2013-01-27 15:20:00,40.4,22.7,28.57,SE,135,5.0,10.0,49,0.00,,,0.00,Weather View 32 v70,2013-01-27 20:20:00,
2013-01-27 15:24:00,40.9,23.2,28.57,SW,225,4.0,10.0,49,0.00,,,0.00,Weather View 32 v70,2013-01-27 20:24:00,
2013-01-27 15:30:00,40.3,22.6,28.57,SW,225,8.0,10.0,49,0.00,,,0.00,Weather View 32 v70,2013-01-27 20:30:00,
2013-01-27 15:35:00,39.9,22.7,28.57,South,180,9.0,12.0,50,0.00,,,0.00,Weather View 32 v70,2013-01-27 20:35:00,
2013-01-27 15:40:00,38.9,22.8,28.57,South,180,2.0,12.0,52,0.00,,,0.00,Weather View 32 v70,2013-01-27 20:40:00,
2013-01-27 15:45:00,38.9,22.8,28.57,SSE,157,3.0,12.0,52,0.00,,,0.00,Weather View 32 v70,2013-01-27 20:45:00,
2013-01-27 15:50:00,38.4,22.7,28.57,South,180,3.0,12.0,53,0.00,,,0.00,Weather View 32 v70,2013-01-27 20:50:00,
2013-01-27 15:55:00,38.3,22.6,28.57,SE,135,6.0,12.0,53,0.00,,,0.00,Weather View 32 v70,2013-01-27 20:55:00,
2013-01-27 16:00:00,37.9,22.7,28.57,South,180,6.0,12.0,54,0.00,,,0.00,Weather View 32 v70,2013-01-27 21:00:00,
2013-01-27 16:05:00,37.9,22.7,28.58,South,180,6.0,12.0,54,0.00,,,0.00,Weather View 32 v70,2013-01-27 21:05:00,
2013-01-27 16:10:00,37.8,23.1,28.57,South,180,4.0,12.0,55,0.00,,,0.00,Weather View 32 v70,2013-01-27 21:10:00,
2013-01-27 16:15:00,37.5,22.3,28.57,South,180,4.0,12.0,54,0.00,,,0.00,Weather View 32 v70,2013-01-27 21:15:00,
2013-01-27 16:20:00,37.4,22.3,28.58,South,180,4.0,12.0,54,0.00,,,0.00,Weather View 32 v70,2013-01-27 21:20:00,
2013-01-27 16:25:00,37.1,22.4,28.57,South,180,6.0,12.0,55,0.00,,,0.00,Weather View 32 v70,2013-01-27 21:25:00,
2013-01-27 16:30:00,36.7,22.5,28.57,SSW,202,5.0,12.0,56,0.00,,,0.00,Weather View 32 v70,2013-01-27 21:30:00,
2013-01-27 16:35:00,36.3,22.9,28.57,South,180,7.0,11.0,58,0.00,,,0.00,Weather View 32 v70,2013-01-27 21:35:00,
2013-01-27 16:40:00,35.9,23.0,28.57,SW,225,6.0,11.0,59,0.00,,,0.00,Weather View 32 v70,2013-01-27 21:40:00,
2013-01-27 16:45:00,35.4,23.3,28.57,SW,225,6.0,11.0,61,0.00,,,0.00,Weather View 32 v70,2013-01-27 21:45:00,
2013-01-27 16:50:00,34.9,23.2,28.57,South,180,6.0,11.0,62,0.00,,,0.00,Weather View 32 v70,2013-01-27 21:50:00,
2013-01-27 16:55:00,34.6,23.3,28.57,SSW,202,6.0,11.0,63,0.00,,,0.00,Weather View 32 v70,2013-01-27 21:55:00,
2013-01-27 17:00:00,34.3,23.0,28.57,South,180,4.0,11.0,63,0.00,,,0.00,Weather View 32 v70,2013-01-27 22:00:00,
2013-01-27 17:05:00,33.9,23.4,28.58,SSW,202,6.0,11.0,65,0.00,,,0.00,Weather View 32 v70,2013-01-27 22:05:00,
2013-01-27 17:10:00,33.7,23.2,28.58,SSW,202,4.0,11.0,65,0.00,,,0.00,Weather View 32 v70,2013-01-27 22:10:00,
2013-01-27 17:15:00,33.5,23.0,28.58,South,180,2.0,10.0,65,0.00,,,0.00,Weather View 32 v70,2013-01-27 22:15:00,
2013-01-27 17:20:00,33.3,22.8,28.57,SW,225,4.0,10.0,65,0.00,,,0.00,Weather View 32 v70,2013-01-27 22:20:00,
2013-01-27 17:25:00,33.2,23.1,28.57,South,180,6.0,10.0,66,0.00,,,0.00,Weather View 32 v70,2013-01-27 22:25:00,
2013-01-27 17:30:00,33.1,23.0,28.57,South,180,4.0,10.0,66,0.00,,,0.00,Weather View 32 v70,2013-01-27 22:30:00,
2013-01-27 17:35:00,32.9,23.1,28.57,SSW,202,4.0,10.0,67,0.00,,,0.00,Weather View 32 v70,2013-01-27 22:35:00,
2013-01-27 17:40:00,32.7,23.3,28.57,SSW,202,3.0,10.0,68,0.00,,,0.00,Weather View 32 v70,2013-01-27 22:40:00,
2013-01-27 17:45:00,32.6,23.2,28.57,South,180,1.0,9.0,68,0.00,,,0.00,Weather View 32 v70,2013-01-27 22:45:00,
2013-01-27 17:50:00,32.3,22.9,28.57,South,180,1.0,8.0,68,0.00,,,0.00,Weather View 32 v70,2013-01-27 22:50:00,
2013-01-27 17:55:00,32.0,23.0,28.58,South,180,2.0,7.0,69,0.00,,,0.00,Weather View 32 v70,2013-01-27 22:55:00,
2013-01-27 18:00:00,31.9,23.2,28.58,South,180,2.0,7.0,70,0.00,,,0.00,Weather View 32 v70,2013-01-27 23:00:00,
2013-01-27 18:05:00,31.9,23.2,28.58,South,180,2.0,7.0,70,0.00,,,0.00,Weather View 32 v70,2013-01-27 23:05:00,
2013-01-27 18:11:00,31.8,23.1,28.57,South,180,3.0,7.0,70,0.00,,,0.00,Weather View 32 v70,2013-01-27 23:11:00,
2013-01-27 18:16:00,31.7,23.4,28.57,South,180,2.0,7.0,71,0.00,,,0.00,Weather View 32 v70,2013-01-27 23:16:00,
2013-01-27 18:21:00,31.5,23.2,28.57,South,180,3.0,7.0,71,0.00,,,0.00,Weather View 32 v70,2013-01-27 23:21:00,
2013-01-27 18:26:00,31.3,23.3,28.57,South,180,2.0,7.0,72,0.00,,,0.00,Weather View 32 v70,2013-01-27 23:26:00,
2013-01-27 18:31:00,31.2,23.2,28.57,South,180,2.0,6.0,72,0.00,,,0.00,Weather View 32 v70,2013-01-27 23:31:00,
2013-01-27 18:36:00,31.1,23.5,28.57,South,180,1.0,6.0,73,0.00,,,0.00,Weather View 32 v70,2013-01-27 23:36:00,
2013-01-27 18:41:00,30.9,22.9,28.58,South,180,1.0,6.0,72,0.00,,,0.00,Weather View 32 v70,2013-01-27 23:41:00,
2013-01-27 18:46:00,30.7,23.1,28.57,SE,135,2.0,6.0,73,0.00,,,0.00,Weather View 32 v70,2013-01-27 23:46:00,
2013-01-27 18:51:00,30.7,23.4,28.57,South,180,3.0,6.0,74,0.00,,,0.00,Weather View 32 v70,2013-01-27 23:51:00,
2013-01-27 18:56:00,30.6,23.3,28.57,South,180,3.0,6.0,74,0.00,,,0.00,Weather View 32 v70,2013-01-27 23:56:00,
2013-01-27 19:01:00,30.4,23.1,28.57,South,180,2.0,6.0,74,0.00,,,0.00,Weather View 32 v70,2013-01-28 00:01:00,
2013-01-27 19:06:00,30.1,23.1,28.57,South,180,2.0,6.0,75,0.00,,,0.00,Weather View 32 v70,2013-01-28 00:06:00,
2013-01-27 19:11:00,29.8,23.2,28.57,South,180,2.0,6.0,76,0.00,,,0.00,Weather View 32 v70,2013-01-28 00:11:00,
2013-01-27 19:16:00,29.9,23.3,28.57,South,180,2.0,6.0,76,0.00,,,0.00,Weather View 32 v70,2013-01-28 00:16:00,
2013-01-27 19:21:00,29.8,23.2,28.56,South,180,3.0,6.0,76,0.00,,,0.00,Weather View 32 v70,2013-01-28 00:21:00,
2013-01-27 19:26:00,29.8,23.2,28.56,South,180,1.0,6.0,76,0.00,,,0.00,Weather View 32 v70,2013-01-28 00:26:00,
2013-01-27 19:31:00,29.9,23.3,28.56,South,180,2.0,6.0,76,0.00,,,0.00,Weather View 32 v70,2013-01-28 00:31:00,
2013-01-27 19:36:00,29.8,23.2,28.57,South,180,2.0,6.0,76,0.00,,,0.00,Weather View 32 v70,2013-01-28 00:36:00,
2013-01-27 19:41:00,29.7,23.1,28.56,South,180,2.0,6.0,76,0.00,,,0.00,Weather View 32 v70,2013-01-28 00:41:00,
2013-01-27 19:46:00,29.4,23.1,28.56,South,180,1.0,6.0,77,0.00,,,0.00,Weather View 32 v70,2013-01-28 00:46:00,
2013-01-27 19:51:00,29.1,23.1,28.56,South,180,3.0,6.0,78,0.00,,,0.00,Weather View 32 v70,2013-01-28 00:51:00,
2013-01-27 19:56:00,28.9,23.2,28.56,South,180,3.0,6.0,79,0.00,,,0.00,Weather View 32 v70,2013-01-28 00:56:00,
2013-01-27 20:01:00,28.8,23.1,28.55,South,180,2.0,6.0,79,0.00,,,0.00,Weather View 32 v70,2013-01-28 01:01:00,
2013-01-27 20:06:00,28.9,23.2,28.55,South,180,2.0,6.0,79,0.00,,,0.00,Weather View 32 v70,2013-01-28 01:06:00,
2013-01-27 20:11:00,28.5,23.1,28.55,South,180,2.0,6.0,80,0.00,,,0.00,Weather View 32 v70,2013-01-28 01:11:00,
2013-01-27 20:16:00,28.2,23.1,28.55,South,180,1.0,6.0,81,0.00,,,0.00,Weather View 32 v70,2013-01-28 01:16:00,
2013-01-27 20:21:00,27.9,23.1,28.55,South,180,0.0,5.0,82,0.00,,,0.00,Weather View 32 v70,2013-01-28 01:21:00,
2013-01-27 20:26:00,27.7,23.2,28.55,South,180,0.0,5.0,83,0.00,,,0.00,Weather View 32 v70,2013-01-28 01:26:00,
2013-01-27 20:31:00,27.6,23.7,28.56,South,180,2.0,5.0,85,0.00,,,0.00,Weather View 32 v70,2013-01-28 01:31:00,
2013-01-27 20:36:00,27.8,23.6,28.55,South,180,2.0,5.0,84,0.00,,,0.00,Weather View 32 v70,2013-01-28 01:36:00,
2013-01-27 20:42:00,27.9,23.7,28.55,South,180,2.0,5.0,84,0.00,,,0.00,Weather View 32 v70,2013-01-28 01:42:00,
2013-01-27 20:47:00,28.9,23.8,28.54,SSE,157,2.0,5.0,81,0.00,,,0.00,Weather View 32 v70,2013-01-28 01:47:00,
2013-01-27 20:52:00,29.1,24.0,28.54,South,180,2.0,5.0,81,0.00,,,0.00,Weather View 32 v70,2013-01-28 01:52:00,